Elizabeth Mc Allister — WDB7652 — position and weather

sailwx.info

Track history (hours):
 
Tides and Currents Weather Stations Pressure Air Temp Water Temp Dewpoint Dewpoint Depression Visibility Wind Speed Wind Dir Waves Ship Positions

Elizabeth Mc Allister

Owner: MC ALLISTER TOWING & TRANSPORTATION INC, NEW YORK, NY. More information available from US FCC via Universal Licensing System and Coast Guard Vessel Documentation Center.

Last reported at 2017-Sep-19 16:38 UTC. Time now 2017-Sep-22 06:31 UTC.
Position N 40°38' W 074°10'.

Length 31 m.

Type: Tug. MMSI: 362751376.

Date/timePositionNaut miles runAvg speedWind from/ knotsBaromVisibWave heightAir tempDewpointWater temp
2017-Sep-19 16:38N 40°38' W 074°10'0 0.1
2017-Sep-19 16:31N 40°38' W 074°10'0 0.0
2017-Sep-19 16:01N 40°38' W 074°10'0 0.0
2017-Sep-19 15:30N 40°38' W 074°10'1 2.1
2017-Sep-19 15:00N 40°39' W 074°11'3 5.8
2017-Sep-19 14:30N 40°36' W 074°12'0 0.2
2017-Sep-19 13:55N 40°36' W 074°12'1 0.1
2017-Sep-19 06:18N 40°36' W 074°12'2 5.1
2017-Sep-19 06:00N 40°38' W 074°12'0 0.4
2017-Sep-19 05:29N 40°38' W 074°12'0 0.0
2017-Sep-19 04:59N 40°38' W 074°12'0 0.0
2017-Sep-19 04:30N 40°38' W 074°12'0 0.0
2017-Sep-19 03:55N 40°38' W 074°12'0 0.0
2017-Sep-19 03:29N 40°38' W 074°12'4 7.3
2017-Sep-19 02:58N 40°39' W 074°07'4 8.5
2017-Sep-19 02:30N 40°40' W 074°03'510.2
2017-Sep-19 02:00N 40°45' W 074°01'0 0.9
2017-Sep-19 01:30N 40°46' W 074°01'1 2.3
2017-Sep-19 01:00N 40°45' W 074°01'0 0.0
2017-Sep-19 00:30N 40°45' W 074°01'0 0.0
2017-Sep-19 00:00N 40°45' W 074°01'4 8.5
2017-Sep-18 23:30N 40°41' W 074°03'2 3.7
2017-Sep-18 23:00N 40°40' W 074°05'0 0.0
2017-Sep-18 22:30N 40°40' W 074°05'0 0.0
2017-Sep-18 22:01N 40°40' W 074°05'0 0.0
2017-Sep-18 21:30N 40°40' W 074°05'0 0.0
2017-Sep-18 21:00N 40°40' W 074°05'0 0.0
2017-Sep-18 20:31N 40°40' W 074°05'0 0.6
2017-Sep-18 20:00N 40°40' W 074°05'0 0.7
2017-Sep-18 19:29N 40°40' W 074°05'0 0.9
2017-Sep-18 18:59N 40°40' W 074°05'4 7.4
2017-Sep-18 18:30N 40°37' W 074°03'1 2.7
2017-Sep-18 18:00N 40°38' W 074°04'0 0.0
2017-Sep-18 17:30N 40°38' W 074°04'2 3.6
2017-Sep-18 17:01N 40°39' W 074°03'1 2.5
2017-Sep-18 16:30N 40°40' W 074°05'0 0.1
2017-Sep-18 16:00N 40°40' W 074°05'3 6.2
2017-Sep-18 15:30N 40°39' W 074°08'1 2.5
2017-Sep-18 15:00N 40°38' W 074°10'0 0.0
2017-Sep-18 14:30N 40°38' W 074°10'0 0.0
2017-Sep-18 13:59N 40°38' W 074°10'0 0.0
2017-Sep-18 13:30N 40°38' W 074°10'0 0.0
2017-Sep-18 13:00N 40°38' W 074°10'0 0.0
2017-Sep-18 12:31N 40°38' W 074°10'0 0.0
2017-Sep-18 12:00N 40°38' W 074°10'0 0.0
2017-Sep-18 11:29N 40°38' W 074°10'2 3.1
2017-Sep-18 10:58N 40°39' W 074°08'1 2.7
2017-Sep-18 10:31N 40°40' W 074°09'1 1.1
2017-Sep-18 10:00N 40°40' W 074°08'2 3.1
2017-Sep-18 09:30N 40°39' W 074°09'1 2.2
2017-Sep-18 09:00N 40°39' W 074°08'3 5.5
2017-Sep-18 08:30N 40°41' W 074°08'0 0.4
2017-Sep-18 08:00N 40°41' W 074°08'0 0.2
2017-Sep-18 07:30N 40°41' W 074°08'3 6.1
2017-Sep-18 07:00N 40°38' W 074°10'0 0.0
2017-Sep-18 06:30N 40°38' W 074°10'0 0.0
2017-Sep-18 06:00N 40°38' W 074°10'0 0.0
2017-Sep-18 05:30N 40°38' W 074°10'0 0.0
2017-Sep-18 05:00N 40°38' W 074°10'0 0.0
2017-Sep-18 04:29N 40°38' W 074°10'0 0.0
2017-Sep-18 04:00N 40°38' W 074°10'0 0.0
2017-Sep-18 03:30N 40°38' W 074°10'0 0.0
2017-Sep-18 03:00N 40°38' W 074°10'0 0.0
2017-Sep-18 02:30N 40°38' W 074°10'0 0.0
2017-Sep-18 02:00N 40°38' W 074°10'0 0.0
2017-Sep-18 01:30N 40°38' W 074°10'0 0.0
2017-Sep-18 01:00N 40°38' W 074°10'0 0.0
2017-Sep-18 00:30N 40°38' W 074°10'0 0.0
2017-Sep-18 00:01N 40°38' W 074°10'0 0.0
2017-Sep-17 23:30N 40°38' W 074°10'0 0.0
2017-Sep-17 23:00N 40°38' W 074°10'0 0.0
2017-Sep-17 22:30N 40°38' W 074°10'0 0.0
2017-Sep-17 22:00N 40°38' W 074°10'0 0.0
2017-Sep-17 21:30N 40°38' W 074°10'0 0.0
2017-Sep-17 21:00N 40°38' W 074°10'0 0.0
2017-Sep-17 20:29N 40°38' W 074°10'0 0.0
2017-Sep-17 20:00N 40°38' W 074°10'0 0.0
2017-Sep-17 19:30N 40°38' W 074°10'0 0.0
2017-Sep-17 19:00N 40°38' W 074°10'0 0.0
2017-Sep-17 18:30N 40°38' W 074°10'0 0.0
2017-Sep-17 18:00N 40°38' W 074°10'0 0.0
2017-Sep-17 17:30N 40°38' W 074°10'0 0.0
2017-Sep-17 16:59N 40°38' W 074°10'0 0.0
2017-Sep-17 16:30N 40°38' W 074°10'0 0.0
2017-Sep-17 15:59N 40°38' W 074°10'0 0.0
2017-Sep-17 15:30N 40°38' W 074°10'0 0.0
2017-Sep-17 15:00N 40°38' W 074°10'0 0.0
2017-Sep-17 14:30N 40°38' W 074°10'0 0.0
2017-Sep-17 14:00N 40°38' W 074°10'2 3.2
2017-Sep-17 13:30N 40°38' W 074°12'6 1.7
2017-Sep-17 10:05N 40°33' W 074°15'2 5.1
2017-Sep-17 09:36N 40°34' W 074°13'1 5.9
2017-Sep-17 09:29N 40°35' W 074°13'0 0.6
2017-Sep-17 08:58N 40°35' W 074°12'1 0.4
2017-Sep-17 06:37N 40°34' W 074°13'1 5.4
2017-Sep-17 06:31N 40°35' W 074°13'4 8.1
2017-Sep-17 06:00N 40°39' W 074°11'1 1.9
2017-Sep-17 05:30N 40°38' W 074°10'0 0.0
2017-Sep-17 05:00N 40°38' W 074°10'0 0.0
2017-Sep-17 04:31N 40°38' W 074°10'0 0.0
2017-Sep-17 04:00N 40°38' W 074°10'0 0.0
2017-Sep-17 03:30N 40°38' W 074°10'0 0.0
2017-Sep-17 03:00N 40°38' W 074°10'0 0.0
2017-Sep-17 02:30N 40°38' W 074°10'0 0.0
2017-Sep-17 02:00N 40°38' W 074°10'0 0.0
2017-Sep-17 01:30N 40°38' W 074°10'0 0.0
2017-Sep-17 01:00N 40°38' W 074°10'0 0.0
2017-Sep-17 00:30N 40°38' W 074°10'0 0.0
2017-Sep-17 00:00N 40°38' W 074°10'0 0.0
2017-Sep-16 23:30N 40°38' W 074°10'0 0.0
2017-Sep-16 23:00N 40°38' W 074°10'0 0.0
2017-Sep-16 22:30N 40°38' W 074°10'0 0.0
2017-Sep-16 21:29N 40°38' W 074°10'0 0.0
2017-Sep-16 21:00N 40°38' W 074°10'0 0.0
2017-Sep-16 20:30N 40°38' W 074°10'0 0.0
2017-Sep-16 20:00N 40°38' W 074°10'0 0.0
2017-Sep-16 19:30N 40°38' W 074°10'0 0.0
2017-Sep-16 19:00N 40°38' W 074°10'0 0.0
2017-Sep-16 18:30N 40°38' W 074°10'0 0.1
2017-Sep-16 18:00N 40°38' W 074°10'5 9.4
2017-Sep-16 17:30N 40°40' W 074°04'5 9.8
2017-Sep-16 17:01N 40°43' W 073°59'0 0.6
2017-Sep-16 16:31N 40°42' W 073°58'2 4.5
2017-Sep-16 16:01N 40°41' W 074°01'3 5.7
2017-Sep-16 15:31N 40°40' W 074°04'1 1.5
2017-Sep-16 15:00N 40°40' W 074°05'0 0.0
2017-Sep-16 14:30N 40°40' W 074°05'0 0.0
2017-Sep-16 14:00N 40°40' W 074°05'0 0.0
2017-Sep-16 13:30N 40°40' W 074°05'0 0.0
2017-Sep-16 13:00N 40°40' W 074°05'0 0.0
2017-Sep-16 12:30N 40°40' W 074°05'0 0.0
2017-Sep-16 12:01N 40°40' W 074°05'0 0.4
2017-Sep-16 11:30N 40°40' W 074°05'0 0.8
2017-Sep-16 11:01N 40°40' W 074°04'2 3.8
2017-Sep-16 10:30N 40°38' W 074°03'1 1.6
2017-Sep-16 10:00N 40°38' W 074°04'0 0.0
2017-Sep-16 09:31N 40°38' W 074°04'0 0.0
2017-Sep-16 09:00N 40°38' W 074°04'2 4.8
2017-Sep-16 08:30N 40°39' W 074°07'3 6.7
2017-Sep-16 08:00N 40°42' W 074°07'0 0.8
2017-Sep-16 07:30N 40°42' W 074°07'2 4.3
2017-Sep-16 07:00N 40°40' W 074°08'1 1.7
2017-Sep-16 06:30N 40°40' W 074°09'1 1.1
2017-Sep-16 06:00N 40°40' W 074°08'0 0.3
2017-Sep-16 05:30N 40°40' W 074°08'0 0.2
2017-Sep-16 05:01N 40°40' W 074°08'2 3.8
2017-Sep-16 04:30N 40°38' W 074°10'0 0.0
2017-Sep-16 04:00N 40°38' W 074°10'0 0.0
2017-Sep-16 03:30N 40°38' W 074°10'0 0.0
2017-Sep-16 03:00N 40°38' W 074°10'0 0.0
2017-Sep-16 02:30N 40°38' W 074°10'0 0.0
2017-Sep-16 02:00N 40°38' W 074°10'0 0.0
2017-Sep-16 01:30N 40°38' W 074°10'0 0.0
2017-Sep-16 01:00N 40°38' W 074°10'0 0.0
2017-Sep-16 00:30N 40°38' W 074°10'0 0.0
2017-Sep-16 00:01N 40°38' W 074°10'0 0.0
2017-Sep-15 23:30N 40°38' W 074°10'0 0.0
2017-Sep-15 23:00N 40°38' W 074°10'0 0.0
2017-Sep-15 22:30N 40°38' W 074°10'0 0.0
2017-Sep-15 22:00N 40°38' W 074°10'1 2.5
2017-Sep-15 21:29N 40°38' W 074°12'6 1.6
2017-Sep-15 17:41N 40°33' W 074°15'0 0.1
2017-Sep-15 10:51N 40°33' W 074°15'410.0
2017-Sep-15 10:30N 40°36' W 074°12'4 8.2
2017-Sep-15 10:00N 40°39' W 074°09'1 2.2
2017-Sep-15 09:30N 40°40' W 074°08'2 3.1
2017-Sep-15 09:00N 40°39' W 074°08'1 2.3
2017-Sep-15 08:30N 40°39' W 074°09'1 2.1
2017-Sep-15 08:01N 40°40' W 074°08'0 0.0
2017-Sep-15 07:31N 40°40' W 074°08'0 0.0
2017-Sep-15 07:00N 40°40' W 074°08'0 0.0
2017-Sep-15 06:31N 40°40' W 074°08'0 0.0
2017-Sep-15 06:00N 40°40' W 074°08'0 0.0
2017-Sep-15 05:31N 40°40' W 074°08'0 0.0
2017-Sep-15 05:00N 40°40' W 074°08'0 0.0
2017-Sep-15 04:30N 40°40' W 074°08'1 2.3
2017-Sep-15 04:00N 40°39' W 074°09'2 3.1
2017-Sep-15 03:30N 40°41' W 074°09'0 0.7
2017-Sep-15 02:59N 40°41' W 074°09'2 3.7
2017-Sep-15 02:30N 40°39' W 074°09'1 2.5
2017-Sep-15 02:00N 40°38' W 074°10'0 0.0
2017-Sep-15 01:30N 40°38' W 074°10'0 0.0
2017-Sep-15 01:01N 40°38' W 074°10'0 0.0
2017-Sep-15 00:31N 40°38' W 074°10'0 0.0
2017-Sep-15 00:01N 40°38' W 074°10'0 0.0
2017-Sep-14 23:30N 40°38' W 074°10'0 0.0
2017-Sep-14 23:00N 40°38' W 074°10'0 0.0
2017-Sep-14 22:30N 40°38' W 074°10'0 0.0
2017-Sep-14 22:00N 40°38' W 074°10'0 0.0
2017-Sep-14 21:30N 40°38' W 074°10'0 0.0
2017-Sep-14 21:00N 40°38' W 074°10'0 0.0
2017-Sep-14 20:30N 40°38' W 074°10'0 0.0
2017-Sep-14 20:00N 40°38' W 074°10'0 0.0
2017-Sep-14 19:30N 40°38' W 074°10'0 0.0
2017-Sep-14 19:00N 40°38' W 074°10'0 0.0
2017-Sep-14 18:30N 40°38' W 074°10'0 0.0
2017-Sep-14 18:00N 40°38' W 074°10'0 0.0
2017-Sep-14 17:30N 40°38' W 074°10'1 1.5
2017-Sep-14 17:00N 40°38' W 074°09'1 1.2
2017-Sep-14 16:30N 40°39' W 074°09'1 2.4
2017-Sep-14 16:01N 40°40' W 074°08'0 0.1
2017-Sep-14 15:30N 40°40' W 074°08'0 0.0
2017-Sep-14 15:01N 40°40' W 074°08'0 0.0
2017-Sep-14 14:30N 40°40' W 074°08'0 0.2
2017-Sep-14 14:01N 40°40' W 074°08'2 4.2
2017-Sep-14 13:30N 40°38' W 074°10'0 0.0
2017-Sep-14 13:00N 40°38' W 074°10'0 0.0
2017-Sep-14 12:30N 40°38' W 074°10'0 0.9
2017-Sep-14 12:00N 40°38' W 074°09'3 5.4
2017-Sep-14 11:30N 40°41' W 074°09'0 0.9
2017-Sep-14 11:00N 40°41' W 074°09'0 1.0
2017-Sep-14 10:30N 40°41' W 074°08'1 1.2
2017-Sep-14 10:00N 40°41' W 074°08'0 0.0
2017-Sep-14 09:30N 40°41' W 074°08'0 0.0
2017-Sep-14 09:00N 40°41' W 074°08'1 1.0
2017-Sep-14 08:30N 40°41' W 074°08'2 4.3
2017-Sep-14 08:00N 40°39' W 074°09'3 6.0
2017-Sep-14 07:30N 40°39' W 074°05'2 4.0
2017-Sep-14 07:01N 40°38' W 074°03'4 7.3
2017-Sep-14 06:31N 40°39' W 074°08'2 3.2
2017-Sep-14 06:00N 40°38' W 074°10'0 0.0
2017-Sep-14 05:30N 40°38' W 074°10'0 0.0
2017-Sep-14 05:00N 40°38' W 074°10'0 0.0
2017-Sep-14 04:30N 40°38' W 074°10'0 0.0
2017-Sep-14 04:00N 40°38' W 074°10'0 0.0
2017-Sep-14 03:30N 40°38' W 074°10'0 0.0
2017-Sep-14 03:00N 40°38' W 074°10'0 0.0
2017-Sep-14 02:30N 40°38' W 074°10'1 1.2
2017-Sep-14 02:01N 40°39' W 074°09'1 2.3
2017-Sep-14 01:30N 40°40' W 074°09'0 0.0
2017-Sep-14 01:00N 40°40' W 074°09'0 0.2
2017-Sep-14 00:30N 40°40' W 074°09'1 2.6
2017-Sep-14 00:00N 40°38' W 074°10'0 0.0
2017-Sep-13 23:30N 40°38' W 074°10'0 0.0
2017-Sep-13 23:00N 40°38' W 074°10'0 0.1
2017-Sep-13 22:30N 40°38' W 074°10'0 0.0
2017-Sep-13 21:58N 40°38' W 074°10'0 0.0
2017-Sep-13 21:24N 40°38' W 074°10'0 0.0
2017-Sep-13 20:56N 40°38' W 074°10'0 0.0
2017-Sep-13 20:30N 40°38' W 074°10'0 0.0
2017-Sep-13 19:59N 40°38' W 074°10'0 0.0
2017-Sep-13 19:28N 40°38' W 074°10'0 0.0
2017-Sep-13 18:54N 40°38' W 074°10'0 0.0
2017-Sep-13 18:30N 40°38' W 074°10'0 0.0
2017-Sep-13 18:00N 40°38' W 074°10'0 0.0
2017-Sep-13 17:30N 40°38' W 074°10'0 0.0
2017-Sep-13 16:58N 40°38' W 074°10'0 0.0
2017-Sep-13 16:30N 40°38' W 074°10'0 0.0
2017-Sep-13 15:59N 40°38' W 074°10'0 0.0
2017-Sep-13 15:30N 40°38' W 074°10'0 0.0
2017-Sep-13 15:00N 40°38' W 074°10'0 0.0
2017-Sep-13 14:29N 40°38' W 074°10'0 0.0
2017-Sep-13 14:00N 40°38' W 074°10'0 0.0
2017-Sep-13 13:29N 40°38' W 074°10'0 0.0
2017-Sep-13 13:00N 40°38' W 074°10'0 0.0
2017-Sep-13 12:30N 40°38' W 074°10'0 0.0
2017-Sep-13 12:00N 40°38' W 074°10'0 0.0
2017-Sep-13 11:30N 40°38' W 074°10'0 0.0
2017-Sep-13 11:00N 40°38' W 074°10'0 0.0
2017-Sep-13 10:30N 40°38' W 074°10'0 0.0
2017-Sep-13 10:00N 40°38' W 074°10'0 0.0
2017-Sep-13 09:30N 40°38' W 074°10'0 0.0
2017-Sep-13 09:00N 40°38' W 074°10'0 0.0
2017-Sep-13 08:29N 40°38' W 074°10'0 0.0
2017-Sep-13 08:00N 40°38' W 074°10'0 0.0
2017-Sep-13 07:30N 40°38' W 074°10'0 0.0
2017-Sep-13 07:00N 40°38' W 074°10'0 0.0
2017-Sep-13 06:30N 40°38' W 074°10'0 0.0
2017-Sep-13 06:00N 40°38' W 074°10'0 0.0
2017-Sep-13 05:30N 40°38' W 074°10'0 0.0
2017-Sep-13 05:00N 40°38' W 074°10'0 0.0
2017-Sep-13 04:30N 40°38' W 074°10'0 0.0
2017-Sep-13 03:55N 40°38' W 074°10'0 0.0
2017-Sep-13 03:31N 40°38' W 074°10'0 0.0
2017-Sep-13 03:00N 40°38' W 074°10'0 0.0
2017-Sep-13 02:30N 40°38' W 074°10'0 0.0
2017-Sep-13 02:00N 40°38' W 074°10'0 0.0
2017-Sep-13 01:29N 40°38' W 074°10'0 0.0
2017-Sep-13 01:01N 40°38' W 074°10'0 0.0
2017-Sep-13 00:30N 40°38' W 074°10'0 0.0
2017-Sep-12 23:59N 40°38' W 074°10'0 0.0
2017-Sep-12 23:30N 40°38' W 074°10'0 0.0
2017-Sep-12 22:59N 40°38' W 074°10'0 0.0
2017-Sep-12 22:29N 40°38' W 074°10'0 0.0
2017-Sep-12 21:59N 40°38' W 074°10'0 0.0
2017-Sep-12 21:29N 40°38' W 074°10'0 0.0
2017-Sep-12 21:00N 40°38' W 074°10'0 0.0
2017-Sep-12 20:30N 40°38' W 074°10'0 0.0
2017-Sep-12 19:58N 40°38' W 074°10'0 0.0
2017-Sep-12 19:30N 40°38' W 074°10'0 0.0
2017-Sep-12 19:00N 40°38' W 074°10'0 0.0
2017-Sep-12 18:30N 40°38' W 074°10'0 0.0
2017-Sep-12 18:00N 40°38' W 074°10'0 0.0
2017-Sep-12 17:15N 40°38' W 074°10'0 0.0
2017-Sep-12 16:58N 40°38' W 074°10'0 0.0
2017-Sep-12 16:30N 40°38' W 074°10'0 0.0
2017-Sep-12 15:59N 40°38' W 074°10'0 0.0
2017-Sep-12 15:30N 40°38' W 074°10'0 0.0
2017-Sep-12 15:00N 40°38' W 074°10'0 0.0
2017-Sep-12 14:30N 40°38' W 074°10'0 0.0
2017-Sep-12 14:00N 40°38' W 074°10'0 0.0
2017-Sep-12 13:30N 40°38' W 074°10'0 0.0
2017-Sep-12 13:00N 40°38' W 074°10'0 0.0
2017-Sep-12 12:30N 40°38' W 074°10'0 0.0
2017-Sep-12 12:00N 40°38' W 074°10'0 0.0
2017-Sep-12 11:30N 40°38' W 074°10'0 0.0
2017-Sep-12 11:00N 40°38' W 074°10'0 0.0
2017-Sep-12 10:30N 40°38' W 074°10'0 0.0
2017-Sep-12 10:00N 40°38' W 074°10'0 0.0
2017-Sep-12 09:30N 40°38' W 074°10'0 0.0
2017-Sep-12 09:00N 40°38' W 074°10'0 0.0
2017-Sep-12 08:30N 40°38' W 074°10'0 0.0
2017-Sep-12 08:00N 40°38' W 074°10'0 0.0
2017-Sep-12 07:30N 40°38' W 074°10'0 0.0
2017-Sep-12 07:00N 40°38' W 074°10'0 0.0
2017-Sep-12 06:30N 40°38' W 074°10'0 0.0
2017-Sep-12 06:00N 40°38' W 074°10'0 0.0
2017-Sep-12 05:30N 40°38' W 074°10'0 0.0
2017-Sep-12 05:00N 40°38' W 074°10'0 0.0
2017-Sep-12 04:30N 40°38' W 074°10'0 0.0
2017-Sep-12 04:00N 40°38' W 074°10'0 0.0
2017-Sep-12 03:30N 40°38' W 074°10'0 0.0
2017-Sep-12 02:59N 40°38' W 074°10'0 0.0
2017-Sep-12 02:30N 40°38' W 074°10'0 0.0
2017-Sep-12 02:00N 40°38' W 074°10'0 0.0
2017-Sep-12 01:29N 40°38' W 074°10'0 0.0
2017-Sep-12 01:01N 40°38' W 074°10'0 0.0
2017-Sep-12 00:30N 40°38' W 074°10'0 0.0
2017-Sep-12 00:00N 40°38' W 074°10'0 0.0
2017-Sep-11 23:30N 40°38' W 074°10'0 0.0
2017-Sep-11 23:00N 40°38' W 074°10'0 0.0
2017-Sep-11 22:30N 40°38' W 074°10'0 0.0
2017-Sep-11 22:00N 40°38' W 074°10'0 0.0
2017-Sep-11 21:30N 40°38' W 074°10'0 0.0
2017-Sep-11 21:00N 40°38' W 074°10'0 0.0
2017-Sep-11 20:30N 40°38' W 074°10'0 0.0
2017-Sep-11 20:00N 40°38' W 074°10'0 0.0
2017-Sep-11 19:30N 40°38' W 074°10'0 0.0
2017-Sep-11 19:00N 40°38' W 074°10'0 0.0
2017-Sep-11 18:30N 40°38' W 074°10'0 0.0
2017-Sep-11 18:00N 40°38' W 074°10'0 0.0
2017-Sep-11 17:31N 40°38' W 074°10'0 0.0
2017-Sep-11 17:01N 40°38' W 074°10'4 7.7
2017-Sep-11 16:30N 40°39' W 074°05'510.4
2017-Sep-11 16:00N 40°34' W 074°02'7 5.9
2017-Sep-11 14:52N 40°27' W 074°03'  
Track history (hours):
 
Tides and Currents Weather Stations Pressure Air Temp Water Temp Dewpoint Dewpoint Depression Visibility Wind Speed Wind Dir Waves Ship Positions

Elizabeth Mc Allister

Owner: MC ALLISTER TOWING & TRANSPORTATION INC, NEW YORK, NY. More information available from US FCC via Universal Licensing System and Coast Guard Vessel Documentation Center.

Last reported at 2017-Sep-19 16:38 UTC. Time now 2017-Sep-22 06:31 UTC.
Position N 40°38' W 074°10'.

Length 31 m.

Type: Tug. MMSI: 362751376.

Date/timePositionNaut miles runAvg speedWind from/ knotsBaromVisibWave heightAir tempDewpointWater temp
2017-Sep-19 16:38N 40°38' W 074°10'0 0.1
2017-Sep-19 16:31N 40°38' W 074°10'0 0.0
2017-Sep-19 16:01N 40°38' W 074°10'0 0.0
2017-Sep-19 15:30N 40°38' W 074°10'1 2.1
2017-Sep-19 15:00N 40°39' W 074°11'3 5.8
2017-Sep-19 14:30N 40°36' W 074°12'0 0.2
2017-Sep-19 13:55N 40°36' W 074°12'1 0.1
2017-Sep-19 06:18N 40°36' W 074°12'2 5.1
2017-Sep-19 06:00N 40°38' W 074°12'0 0.4
2017-Sep-19 05:29N 40°38' W 074°12'0 0.0
2017-Sep-19 04:59N 40°38' W 074°12'0 0.0
2017-Sep-19 04:30N 40°38' W 074°12'0 0.0
2017-Sep-19 03:55N 40°38' W 074°12'0 0.0
2017-Sep-19 03:29N 40°38' W 074°12'4 7.3
2017-Sep-19 02:58N 40°39' W 074°07'4 8.5
2017-Sep-19 02:30N 40°40' W 074°03'510.2
2017-Sep-19 02:00N 40°45' W 074°01'0 0.9
2017-Sep-19 01:30N 40°46' W 074°01'1 2.3
2017-Sep-19 01:00N 40°45' W 074°01'0 0.0
2017-Sep-19 00:30N 40°45' W 074°01'0 0.0
2017-Sep-19 00:00N 40°45' W 074°01'4 8.5
2017-Sep-18 23:30N 40°41' W 074°03'2 3.7
2017-Sep-18 23:00N 40°40' W 074°05'0 0.0
2017-Sep-18 22:30N 40°40' W 074°05'0 0.0
2017-Sep-18 22:01N 40°40' W 074°05'0 0.0
2017-Sep-18 21:30N 40°40' W 074°05'0 0.0
2017-Sep-18 21:00N 40°40' W 074°05'0 0.0
2017-Sep-18 20:31N 40°40' W 074°05'0 0.6
2017-Sep-18 20:00N 40°40' W 074°05'0 0.7
2017-Sep-18 19:29N 40°40' W 074°05'0 0.9
2017-Sep-18 18:59N 40°40' W 074°05'4 7.4
2017-Sep-18 18:30N 40°37' W 074°03'1 2.7
2017-Sep-18 18:00N 40°38' W 074°04'0 0.0
2017-Sep-18 17:30N 40°38' W 074°04'2 3.6
2017-Sep-18 17:01N 40°39' W 074°03'1 2.5
2017-Sep-18 16:30N 40°40' W 074°05'0 0.1
2017-Sep-18 16:00N 40°40' W 074°05'3 6.2
2017-Sep-18 15:30N 40°39' W 074°08'1 2.5
2017-Sep-18 15:00N 40°38' W 074°10'0 0.0
2017-Sep-18 14:30N 40°38' W 074°10'0 0.0
2017-Sep-18 13:59N 40°38' W 074°10'0 0.0
2017-Sep-18 13:30N 40°38' W 074°10'0 0.0
2017-Sep-18 13:00N 40°38' W 074°10'0 0.0
2017-Sep-18 12:31N 40°38' W 074°10'0 0.0
2017-Sep-18 12:00N 40°38' W 074°10'0 0.0
2017-Sep-18 11:29N 40°38' W 074°10'2 3.1
2017-Sep-18 10:58N 40°39' W 074°08'1 2.7
2017-Sep-18 10:31N 40°40' W 074°09'1 1.1
2017-Sep-18 10:00N 40°40' W 074°08'2 3.1
2017-Sep-18 09:30N 40°39' W 074°09'1 2.2
2017-Sep-18 09:00N 40°39' W 074°08'3 5.5
2017-Sep-18 08:30N 40°41' W 074°08'0 0.4
2017-Sep-18 08:00N 40°41' W 074°08'0 0.2
2017-Sep-18 07:30N 40°41' W 074°08'3 6.1
2017-Sep-18 07:00N 40°38' W 074°10'0 0.0
2017-Sep-18 06:30N 40°38' W 074°10'0 0.0
2017-Sep-18 06:00N 40°38' W 074°10'0 0.0
2017-Sep-18 05:30N 40°38' W 074°10'0 0.0
2017-Sep-18 05:00N 40°38' W 074°10'0 0.0
2017-Sep-18 04:29N 40°38' W 074°10'0 0.0
2017-Sep-18 04:00N 40°38' W 074°10'0 0.0
2017-Sep-18 03:30N 40°38' W 074°10'0 0.0
2017-Sep-18 03:00N 40°38' W 074°10'0 0.0
2017-Sep-18 02:30N 40°38' W 074°10'0 0.0
2017-Sep-18 02:00N 40°38' W 074°10'0 0.0
2017-Sep-18 01:30N 40°38' W 074°10'0 0.0
2017-Sep-18 01:00N 40°38' W 074°10'0 0.0
2017-Sep-18 00:30N 40°38' W 074°10'0 0.0
2017-Sep-18 00:01N 40°38' W 074°10'0 0.0
2017-Sep-17 23:30N 40°38' W 074°10'0 0.0
2017-Sep-17 23:00N 40°38' W 074°10'0 0.0
2017-Sep-17 22:30N 40°38' W 074°10'0 0.0
2017-Sep-17 22:00N 40°38' W 074°10'0 0.0
2017-Sep-17 21:30N 40°38' W 074°10'0 0.0
2017-Sep-17 21:00N 40°38' W 074°10'0 0.0
2017-Sep-17 20:29N 40°38' W 074°10'0 0.0
2017-Sep-17 20:00N 40°38' W 074°10'0 0.0
2017-Sep-17 19:30N 40°38' W 074°10'0 0.0
2017-Sep-17 19:00N 40°38' W 074°10'0 0.0
2017-Sep-17 18:30N 40°38' W 074°10'0 0.0
2017-Sep-17 18:00N 40°38' W 074°10'0 0.0
2017-Sep-17 17:30N 40°38' W 074°10'0 0.0
2017-Sep-17 16:59N 40°38' W 074°10'0 0.0
2017-Sep-17 16:30N 40°38' W 074°10'0 0.0
2017-Sep-17 15:59N 40°38' W 074°10'0 0.0
2017-Sep-17 15:30N 40°38' W 074°10'0 0.0
2017-Sep-17 15:00N 40°38' W 074°10'0 0.0
2017-Sep-17 14:30N 40°38' W 074°10'0 0.0
2017-Sep-17 14:00N 40°38' W 074°10'2 3.2
2017-Sep-17 13:30N 40°38' W 074°12'6 1.7
2017-Sep-17 10:05N 40°33' W 074°15'2 5.1
2017-Sep-17 09:36N 40°34' W 074°13'1 5.9
2017-Sep-17 09:29N 40°35' W 074°13'0 0.6
2017-Sep-17 08:58N 40°35' W 074°12'1 0.4
2017-Sep-17 06:37N 40°34' W 074°13'1 5.4
2017-Sep-17 06:31N 40°35' W 074°13'4 8.1
2017-Sep-17 06:00N 40°39' W 074°11'1 1.9
2017-Sep-17 05:30N 40°38' W 074°10'0 0.0
2017-Sep-17 05:00N 40°38' W 074°10'0 0.0
2017-Sep-17 04:31N 40°38' W 074°10'0 0.0
2017-Sep-17 04:00N 40°38' W 074°10'0 0.0
2017-Sep-17 03:30N 40°38' W 074°10'0 0.0
2017-Sep-17 03:00N 40°38' W 074°10'0 0.0
2017-Sep-17 02:30N 40°38' W 074°10'0 0.0
2017-Sep-17 02:00N 40°38' W 074°10'0 0.0
2017-Sep-17 01:30N 40°38' W 074°10'0 0.0
2017-Sep-17 01:00N 40°38' W 074°10'0 0.0
2017-Sep-17 00:30N 40°38' W 074°10'0 0.0
2017-Sep-17 00:00N 40°38' W 074°10'0 0.0
2017-Sep-16 23:30N 40°38' W 074°10'0 0.0
2017-Sep-16 23:00N 40°38' W 074°10'0 0.0
2017-Sep-16 22:30N 40°38' W 074°10'0 0.0
2017-Sep-16 21:29N 40°38' W 074°10'0 0.0
2017-Sep-16 21:00N 40°38' W 074°10'0 0.0
2017-Sep-16 20:30N 40°38' W 074°10'0 0.0
2017-Sep-16 20:00N 40°38' W 074°10'0 0.0
2017-Sep-16 19:30N 40°38' W 074°10'0 0.0
2017-Sep-16 19:00N 40°38' W 074°10'0 0.0
2017-Sep-16 18:30N 40°38' W 074°10'0 0.1
2017-Sep-16 18:00N 40°38' W 074°10'5 9.4
2017-Sep-16 17:30N 40°40' W 074°04'5 9.8
2017-Sep-16 17:01N 40°43' W 073°59'0 0.6
2017-Sep-16 16:31N 40°42' W 073°58'2 4.5
2017-Sep-16 16:01N 40°41' W 074°01'3 5.7
2017-Sep-16 15:31N 40°40' W 074°04'1 1.5
2017-Sep-16 15:00N 40°40' W 074°05'0 0.0
2017-Sep-16 14:30N 40°40' W 074°05'0 0.0
2017-Sep-16 14:00N 40°40' W 074°05'0 0.0
2017-Sep-16 13:30N 40°40' W 074°05'0 0.0
2017-Sep-16 13:00N 40°40' W 074°05'0 0.0
2017-Sep-16 12:30N 40°40' W 074°05'0 0.0
2017-Sep-16 12:01N 40°40' W 074°05'0 0.4
2017-Sep-16 11:30N 40°40' W 074°05'0 0.8
2017-Sep-16 11:01N 40°40' W 074°04'2 3.8
2017-Sep-16 10:30N 40°38' W 074°03'1 1.6
2017-Sep-16 10:00N 40°38' W 074°04'0 0.0
2017-Sep-16 09:31N 40°38' W 074°04'0 0.0
2017-Sep-16 09:00N 40°38' W 074°04'2 4.8
2017-Sep-16 08:30N 40°39' W 074°07'3 6.7
2017-Sep-16 08:00N 40°42' W 074°07'0 0.8
2017-Sep-16 07:30N 40°42' W 074°07'2 4.3
2017-Sep-16 07:00N 40°40' W 074°08'1 1.7
2017-Sep-16 06:30N 40°40' W 074°09'1 1.1
2017-Sep-16 06:00N 40°40' W 074°08'0 0.3
2017-Sep-16 05:30N 40°40' W 074°08'0 0.2
2017-Sep-16 05:01N 40°40' W 074°08'2 3.8
2017-Sep-16 04:30N 40°38' W 074°10'0 0.0
2017-Sep-16 04:00N 40°38' W 074°10'0 0.0
2017-Sep-16 03:30N 40°38' W 074°10'0 0.0
2017-Sep-16 03:00N 40°38' W 074°10'0 0.0
2017-Sep-16 02:30N 40°38' W 074°10'0 0.0
2017-Sep-16 02:00N 40°38' W 074°10'0 0.0
2017-Sep-16 01:30N 40°38' W 074°10'0 0.0
2017-Sep-16 01:00N 40°38' W 074°10'0 0.0
2017-Sep-16 00:30N 40°38' W 074°10'0 0.0
2017-Sep-16 00:01N 40°38' W 074°10'0 0.0
2017-Sep-15 23:30N 40°38' W 074°10'0 0.0
2017-Sep-15 23:00N 40°38' W 074°10'0 0.0
2017-Sep-15 22:30N 40°38' W 074°10'0 0.0
2017-Sep-15 22:00N 40°38' W 074°10'1 2.5
2017-Sep-15 21:29N 40°38' W 074°12'6 1.6
2017-Sep-15 17:41N 40°33' W 074°15'0 0.1
2017-Sep-15 10:51N 40°33' W 074°15'410.0
2017-Sep-15 10:30N 40°36' W 074°12'4 8.2
2017-Sep-15 10:00N 40°39' W 074°09'1 2.2
2017-Sep-15 09:30N 40°40' W 074°08'2 3.1
2017-Sep-15 09:00N 40°39' W 074°08'1 2.3
2017-Sep-15 08:30N 40°39' W 074°09'1 2.1
2017-Sep-15 08:01N 40°40' W 074°08'0 0.0
2017-Sep-15 07:31N 40°40' W 074°08'0 0.0
2017-Sep-15 07:00N 40°40' W 074°08'0 0.0
2017-Sep-15 06:31N 40°40' W 074°08'0 0.0
2017-Sep-15 06:00N 40°40' W 074°08'0 0.0
2017-Sep-15 05:31N 40°40' W 074°08'0 0.0
2017-Sep-15 05:00N 40°40' W 074°08'0 0.0
2017-Sep-15 04:30N 40°40' W 074°08'1 2.3
2017-Sep-15 04:00N 40°39' W 074°09'2 3.1
2017-Sep-15 03:30N 40°41' W 074°09'0 0.7
2017-Sep-15 02:59N 40°41' W 074°09'2 3.7
2017-Sep-15 02:30N 40°39' W 074°09'1 2.5
2017-Sep-15 02:00N 40°38' W 074°10'0 0.0
2017-Sep-15 01:30N 40°38' W 074°10'0 0.0
2017-Sep-15 01:01N 40°38' W 074°10'0 0.0
2017-Sep-15 00:31N 40°38' W 074°10'0 0.0
2017-Sep-15 00:01N 40°38' W 074°10'0 0.0
2017-Sep-14 23:30N 40°38' W 074°10'0 0.0
2017-Sep-14 23:00N 40°38' W 074°10'0 0.0
2017-Sep-14 22:30N 40°38' W 074°10'0 0.0
2017-Sep-14 22:00N 40°38' W 074°10'0 0.0
2017-Sep-14 21:30N 40°38' W 074°10'0 0.0
2017-Sep-14 21:00N 40°38' W 074°10'0 0.0
2017-Sep-14 20:30N 40°38' W 074°10'0 0.0
2017-Sep-14 20:00N 40°38' W 074°10'0 0.0
2017-Sep-14 19:30N 40°38' W 074°10'0 0.0
2017-Sep-14 19:00N 40°38' W 074°10'0 0.0
2017-Sep-14 18:30N 40°38' W 074°10'0 0.0
2017-Sep-14 18:00N 40°38' W 074°10'0 0.0
2017-Sep-14 17:30N 40°38' W 074°10'1 1.5
2017-Sep-14 17:00N 40°38' W 074°09'1 1.2
2017-Sep-14 16:30N 40°39' W 074°09'1 2.4
2017-Sep-14 16:01N 40°40' W 074°08'0 0.1
2017-Sep-14 15:30N 40°40' W 074°08'0 0.0
2017-Sep-14 15:01N 40°40' W 074°08'0 0.0
2017-Sep-14 14:30N 40°40' W 074°08'0 0.2
2017-Sep-14 14:01N 40°40' W 074°08'2 4.2
2017-Sep-14 13:30N 40°38' W 074°10'0 0.0
2017-Sep-14 13:00N 40°38' W 074°10'0 0.0
2017-Sep-14 12:30N 40°38' W 074°10'0 0.9
2017-Sep-14 12:00N 40°38' W 074°09'3 5.4
2017-Sep-14 11:30N 40°41' W 074°09'0 0.9
2017-Sep-14 11:00N 40°41' W 074°09'0 1.0
2017-Sep-14 10:30N 40°41' W 074°08'1 1.2
2017-Sep-14 10:00N 40°41' W 074°08'0 0.0
2017-Sep-14 09:30N 40°41' W 074°08'0 0.0
2017-Sep-14 09:00N 40°41' W 074°08'1 1.0
2017-Sep-14 08:30N 40°41' W 074°08'2 4.3
2017-Sep-14 08:00N 40°39' W 074°09'3 6.0
2017-Sep-14 07:30N 40°39' W 074°05'2 4.0
2017-Sep-14 07:01N 40°38' W 074°03'4 7.3
2017-Sep-14 06:31N 40°39' W 074°08'2 3.2
2017-Sep-14 06:00N 40°38' W 074°10'0 0.0
2017-Sep-14 05:30N 40°38' W 074°10'0 0.0
2017-Sep-14 05:00N 40°38' W 074°10'0 0.0
2017-Sep-14 04:30N 40°38' W 074°10'0 0.0
2017-Sep-14 04:00N 40°38' W 074°10'0 0.0
2017-Sep-14 03:30N 40°38' W 074°10'0 0.0
2017-Sep-14 03:00N 40°38' W 074°10'0 0.0
2017-Sep-14 02:30N 40°38' W 074°10'1 1.2
2017-Sep-14 02:01N 40°39' W 074°09'1 2.3
2017-Sep-14 01:30N 40°40' W 074°09'0 0.0
2017-Sep-14 01:00N 40°40' W 074°09'0 0.2
2017-Sep-14 00:30N 40°40' W 074°09'1 2.6
2017-Sep-14 00:00N 40°38' W 074°10'0 0.0
2017-Sep-13 23:30N 40°38' W 074°10'0 0.0
2017-Sep-13 23:00N 40°38' W 074°10'0 0.1
2017-Sep-13 22:30N 40°38' W 074°10'0 0.0
2017-Sep-13 21:58N 40°38' W 074°10'0 0.0
2017-Sep-13 21:24N 40°38' W 074°10'0 0.0
2017-Sep-13 20:56N 40°38' W 074°10'0 0.0
2017-Sep-13 20:30N 40°38' W 074°10'0 0.0
2017-Sep-13 19:59N 40°38' W 074°10'0 0.0
2017-Sep-13 19:28N 40°38' W 074°10'0 0.0
2017-Sep-13 18:54N 40°38' W 074°10'0 0.0
2017-Sep-13 18:30N 40°38' W 074°10'0 0.0
2017-Sep-13 18:00N 40°38' W 074°10'0 0.0
2017-Sep-13 17:30N 40°38' W 074°10'0 0.0
2017-Sep-13 16:58N 40°38' W 074°10'0 0.0
2017-Sep-13 16:30N 40°38' W 074°10'0 0.0
2017-Sep-13 15:59N 40°38' W 074°10'0 0.0
2017-Sep-13 15:30N 40°38' W 074°10'0 0.0
2017-Sep-13 15:00N 40°38' W 074°10'0 0.0
2017-Sep-13 14:29N 40°38' W 074°10'0 0.0
2017-Sep-13 14:00N 40°38' W 074°10'0 0.0
2017-Sep-13 13:29N 40°38' W 074°10'0 0.0
2017-Sep-13 13:00N 40°38' W 074°10'0 0.0
2017-Sep-13 12:30N 40°38' W 074°10'0 0.0
2017-Sep-13 12:00N 40°38' W 074°10'0 0.0
2017-Sep-13 11:30N 40°38' W 074°10'0 0.0
2017-Sep-13 11:00N 40°38' W 074°10'0 0.0
2017-Sep-13 10:30N 40°38' W 074°10'0 0.0
2017-Sep-13 10:00N 40°38' W 074°10'0 0.0
2017-Sep-13 09:30N 40°38' W 074°10'0 0.0
2017-Sep-13 09:00N 40°38' W 074°10'0 0.0
2017-Sep-13 08:29N 40°38' W 074°10'0 0.0
2017-Sep-13 08:00N 40°38' W 074°10'0 0.0
2017-Sep-13 07:30N 40°38' W 074°10'0 0.0
2017-Sep-13 07:00N 40°38' W 074°10'0 0.0
2017-Sep-13 06:30N 40°38' W 074°10'0 0.0
2017-Sep-13 06:00N 40°38' W 074°10'0 0.0
2017-Sep-13 05:30N 40°38' W 074°10'0 0.0
2017-Sep-13 05:00N 40°38' W 074°10'0 0.0
2017-Sep-13 04:30N 40°38' W 074°10'0 0.0
2017-Sep-13 03:55N 40°38' W 074°10'0 0.0
2017-Sep-13 03:31N 40°38' W 074°10'0 0.0
2017-Sep-13 03:00N 40°38' W 074°10'0 0.0
2017-Sep-13 02:30N 40°38' W 074°10'0 0.0
2017-Sep-13 02:00N 40°38' W 074°10'0 0.0
2017-Sep-13 01:29N 40°38' W 074°10'0 0.0
2017-Sep-13 01:01N 40°38' W 074°10'0 0.0
2017-Sep-13 00:30N 40°38' W 074°10'0 0.0
2017-Sep-12 23:59N 40°38' W 074°10'0 0.0
2017-Sep-12 23:30N 40°38' W 074°10'0 0.0
2017-Sep-12 22:59N 40°38' W 074°10'0 0.0
2017-Sep-12 22:29N 40°38' W 074°10'0 0.0
2017-Sep-12 21:59N 40°38' W 074°10'0 0.0
2017-Sep-12 21:29N 40°38' W 074°10'0 0.0
2017-Sep-12 21:00N 40°38' W 074°10'0 0.0
2017-Sep-12 20:30N 40°38' W 074°10'0 0.0
2017-Sep-12 19:58N 40°38' W 074°10'0 0.0
2017-Sep-12 19:30N 40°38' W 074°10'0 0.0
2017-Sep-12 19:00N 40°38' W 074°10'0 0.0
2017-Sep-12 18:30N 40°38' W 074°10'0 0.0
2017-Sep-12 18:00N 40°38' W 074°10'0 0.0
2017-Sep-12 17:15N 40°38' W 074°10'0 0.0
2017-Sep-12 16:58N 40°38' W 074°10'0 0.0
2017-Sep-12 16:30N 40°38' W 074°10'0 0.0
2017-Sep-12 15:59N 40°38' W 074°10'0 0.0
2017-Sep-12 15:30N 40°38' W 074°10'0 0.0
2017-Sep-12 15:00N 40°38' W 074°10'0 0.0
2017-Sep-12 14:30N 40°38' W 074°10'0 0.0
2017-Sep-12 14:00N 40°38' W 074°10'0 0.0
2017-Sep-12 13:30N 40°38' W 074°10'0 0.0
2017-Sep-12 13:00N 40°38' W 074°10'0 0.0
2017-Sep-12 12:30N 40°38' W 074°10'0 0.0
2017-Sep-12 12:00N 40°38' W 074°10'0 0.0
2017-Sep-12 11:30N 40°38' W 074°10'0 0.0
2017-Sep-12 11:00N 40°38' W 074°10'0 0.0
2017-Sep-12 10:30N 40°38' W 074°10'0 0.0
2017-Sep-12 10:00N 40°38' W 074°10'0 0.0
2017-Sep-12 09:30N 40°38' W 074°10'0 0.0
2017-Sep-12 09:00N 40°38' W 074°10'0 0.0
2017-Sep-12 08:30N 40°38' W 074°10'0 0.0
2017-Sep-12 08:00N 40°38' W 074°10'0 0.0
2017-Sep-12 07:30N 40°38' W 074°10'0 0.0
2017-Sep-12 07:00N 40°38' W 074°10'0 0.0
2017-Sep-12 06:30N 40°38' W 074°10'0 0.0
2017-Sep-12 06:00N 40°38' W 074°10'0 0.0
2017-Sep-12 05:30N 40°38' W 074°10'0 0.0
2017-Sep-12 05:00N 40°38' W 074°10'0 0.0
2017-Sep-12 04:30N 40°38' W 074°10'0 0.0
2017-Sep-12 04:00N 40°38' W 074°10'0 0.0
2017-Sep-12 03:30N 40°38' W 074°10'0 0.0
2017-Sep-12 02:59N 40°38' W 074°10'0 0.0
2017-Sep-12 02:30N 40°38' W 074°10'0 0.0
2017-Sep-12 02:00N 40°38' W 074°10'0 0.0
2017-Sep-12 01:29N 40°38' W 074°10'0 0.0
2017-Sep-12 01:01N 40°38' W 074°10'0 0.0
2017-Sep-12 00:30N 40°38' W 074°10'0 0.0
2017-Sep-12 00:00N 40°38' W 074°10'0 0.0
2017-Sep-11 23:30N 40°38' W 074°10'0 0.0
2017-Sep-11 23:00N 40°38' W 074°10'0 0.0
2017-Sep-11 22:30N 40°38' W 074°10'0 0.0
2017-Sep-11 22:00N 40°38' W 074°10'0 0.0
2017-Sep-11 21:30N 40°38' W 074°10'0 0.0
2017-Sep-11 21:00N 40°38' W 074°10'0 0.0
2017-Sep-11 20:30N 40°38' W 074°10'0 0.0
2017-Sep-11 20:00N 40°38' W 074°10'0 0.0
2017-Sep-11 19:30N 40°38' W 074°10'0 0.0
2017-Sep-11 19:00N 40°38' W 074°10'0 0.0
2017-Sep-11 18:30N 40°38' W 074°10'0 0.0
2017-Sep-11 18:00N 40°38' W 074°10'0 0.0
2017-Sep-11 17:31N 40°38' W 074°10'0 0.0
2017-Sep-11 17:01N 40°38' W 074°10'4 7.7
2017-Sep-11 16:30N 40°39' W 074°05'510.4
2017-Sep-11 16:00N 40°34' W 074°02'7 5.9
2017-Sep-11 14:52N 40°27' W 074°03'  

Dump ship's entire track history